sensor_id;sensor_type;location;lat;lon;timestamp;P1;durP1;ratioP1;P2;durP2;ratioP2
16393;SDS011;8306;51.128;4.476;2023-04-16T00:02:21;3.63;;;1.27;;
16393;SDS011;8306;51.128;4.476;2023-04-16T00:04:48;2.83;;;1.03;;
16393;SDS011;8306;51.128;4.476;2023-04-16T00:07:14;3.00;;;1.27;;
16393;SDS011;8306;51.128;4.476;2023-04-16T00:09:41;4.50;;;1.70;;
16393;SDS011;8306;51.128;4.476;2023-04-16T00:12:07;3.80;;;1.50;;
16393;SDS011;8306;51.128;4.476;2023-04-16T00:14:34;3.80;;;1.23;;
16393;SDS011;8306;51.128;4.476;2023-04-16T00:17:00;4.77;;;2.07;;
16393;SDS011;8306;51.128;4.476;2023-04-16T00:19:27;3.97;;;2.07;;
16393;SDS011;8306;51.128;4.476;2023-04-16T00:21:53;3.53;;;1.70;;
16393;SDS011;8306;51.128;4.476;2023-04-16T00:24:20;7.70;;;2.10;;
16393;SDS011;8306;51.128;4.476;2023-04-16T00:26:46;4.90;;;1.90;;
16393;SDS011;8306;51.128;4.476;2023-04-16T00:29:13;4.17;;;1.60;;
16393;SDS011;8306;51.128;4.476;2023-04-16T00:31:39;5.10;;;2.27;;
16393;SDS011;8306;51.128;4.476;2023-04-16T00:34:06;2.93;;;1.40;;
16393;SDS011;8306;51.128;4.476;2023-04-16T00:36:32;3.00;;;1.50;;
16393;SDS011;8306;51.128;4.476;2023-04-16T00:38:58;3.13;;;1.50;;
16393;SDS011;8306;51.128;4.476;2023-04-16T00:41:25;3.77;;;1.67;;
16393;SDS011;8306;51.128;4.476;2023-04-16T00:43:51;3.03;;;1.60;;
16393;SDS011;8306;51.128;4.476;2023-04-16T00:46:18;5.03;;;1.73;;
16393;SDS011;8306;51.128;4.476;2023-04-16T00:48:44;2.77;;;1.40;;
16393;SDS011;8306;51.128;4.476;2023-04-16T00:51:11;3.37;;;1.20;;
16393;SDS011;8306;51.128;4.476;2023-04-16T00:53:37;4.23;;;1.43;;
16393;SDS011;8306;51.128;4.476;2023-04-16T00:56:04;2.30;;;1.10;;
16393;SDS011;8306;51.128;4.476;2023-04-16T00:58:31;4.40;;;1.10;;
16393;SDS011;8306;51.128;4.476;2023-04-16T01:00:57;2.23;;;1.30;;
16393;SDS011;8306;51.128;4.476;2023-04-16T01:03:24;3.53;;;1.00;;
16393;SDS011;8306;51.128;4.476;2023-04-16T01:05:50;3.53;;;1.20;;
16393;SDS011;8306;51.128;4.476;2023-04-16T01:08:17;2.90;;;1.00;;
16393;SDS011;8306;51.128;4.476;2023-04-16T01:10:43;3.57;;;1.10;;
16393;SDS011;8306;51.128;4.476;2023-04-16T01:13:09;3.33;;;1.37;;
16393;SDS011;8306;51.128;4.476;2023-04-16T01:15:36;2.53;;;1.20;;
16393;SDS011;8306;51.128;4.476;2023-04-16T01:18:02;3.33;;;1.43;;
16393;SDS011;8306;51.128;4.476;2023-04-16T01:20:34;3.03;;;1.30;;
16393;SDS011;8306;51.128;4.476;2023-04-16T01:22:55;3.37;;;1.67;;
16393;SDS011;8306;51.128;4.476;2023-04-16T01:25:22;2.80;;;1.47;;
16393;SDS011;8306;51.128;4.476;2023-04-16T01:27:48;3.83;;;1.60;;
16393;SDS011;8306;51.128;4.476;2023-04-16T01:30:15;3.67;;;1.60;;
16393;SDS011;8306;51.128;4.476;2023-04-16T01:32:41;2.97;;;1.77;;
16393;SDS011;8306;51.128;4.476;2023-04-16T01:35:08;3.20;;;1.70;;
16393;SDS011;8306;51.128;4.476;2023-04-16T01:37:34;2.63;;;1.30;;
16393;SDS011;8306;51.128;4.476;2023-04-16T01:40:01;3.43;;;1.43;;
16393;SDS011;8306;51.128;4.476;2023-04-16T01:42:27;1.93;;;1.27;;
16393;SDS011;8306;51.128;4.476;2023-04-16T01:44:53;4.70;;;2.03;;
16393;SDS011;8306;51.128;4.476;2023-04-16T01:47:20;3.30;;;1.40;;
16393;SDS011;8306;51.128;4.476;2023-04-16T01:49:46;2.37;;;1.37;;
16393;SDS011;8306;51.128;4.476;2023-04-16T01:52:13;1.60;;;1.20;;
16393;SDS011;8306;51.128;4.476;2023-04-16T01:54:39;4.07;;;1.30;;
16393;SDS011;8306;51.128;4.476;2023-04-16T01:57:06;1.53;;;1.23;;
16393;SDS011;8306;51.128;4.476;2023-04-16T01:59:32;4.30;;;1.30;;
16393;SDS011;8306;51.128;4.476;2023-04-16T02:02:01;3.47;;;1.70;;
16393;SDS011;8306;51.128;4.476;2023-04-16T02:04:28;3.57;;;1.40;;
16393;SDS011;8306;51.128;4.476;2023-04-16T02:06:54;2.07;;;1.47;;
16393;SDS011;8306;51.128;4.476;2023-04-16T02:09:21;2.47;;;1.60;;
16393;SDS011;8306;51.128;4.476;2023-04-16T02:11:47;2.90;;;1.50;;
16393;SDS011;8306;51.128;4.476;2023-04-16T02:14:14;2.90;;;1.83;;
16393;SDS011;8306;51.128;4.476;2023-04-16T02:16:40;5.90;;;1.60;;
16393;SDS011;8306;51.128;4.476;2023-04-16T02:19:07;2.80;;;1.83;;
16393;SDS011;8306;51.128;4.476;2023-04-16T02:21:33;3.20;;;1.87;;
16393;SDS011;8306;51.128;4.476;2023-04-16T02:24:00;4.17;;;2.20;;
16393;SDS011;8306;51.128;4.476;2023-04-16T02:26:26;2.40;;;1.90;;
16393;SDS011;8306;51.128;4.476;2023-04-16T02:28:53;4.43;;;2.80;;
16393;SDS011;8306;51.128;4.476;2023-04-16T02:31:19;3.97;;;2.60;;
16393;SDS011;8306;51.128;4.476;2023-04-16T02:33:45;3.97;;;2.97;;
16393;SDS011;8306;51.128;4.476;2023-04-16T02:36:12;3.30;;;2.67;;
16393;SDS011;8306;51.128;4.476;2023-04-16T02:38:38;5.27;;;3.23;;
16393;SDS011;8306;51.128;4.476;2023-04-16T02:41:05;3.30;;;3.00;;
16393;SDS011;8306;51.128;4.476;2023-04-16T02:43:31;4.50;;;3.33;;
16393;SDS011;8306;51.128;4.476;2023-04-16T02:45:58;3.73;;;3.00;;
16393;SDS011;8306;51.128;4.476;2023-04-16T02:48:24;4.93;;;2.90;;
16393;SDS011;8306;51.128;4.476;2023-04-16T02:50:51;5.73;;;2.90;;
16393;SDS011;8306;51.128;4.476;2023-04-16T02:53:17;5.90;;;2.93;;
16393;SDS011;8306;51.128;4.476;2023-04-16T02:55:50;5.30;;;2.80;;
16393;SDS011;8306;51.128;4.476;2023-04-16T02:58:16;3.00;;;2.60;;
16393;SDS011;8306;51.128;4.476;2023-04-16T03:00:43;4.67;;;2.60;;
16393;SDS011;8306;51.128;4.476;2023-04-16T03:03:09;4.10;;;2.97;;
16393;SDS011;8306;51.128;4.476;2023-04-16T03:05:36;3.57;;;2.43;;
16393;SDS011;8306;51.128;4.476;2023-04-16T03:08:02;5.53;;;3.00;;
16393;SDS011;8306;51.128;4.476;2023-04-16T03:10:29;4.60;;;2.60;;
16393;SDS011;8306;51.128;4.476;2023-04-16T03:12:55;4.10;;;2.90;;
16393;SDS011;8306;51.128;4.476;2023-04-16T03:15:22;3.50;;;2.67;;
16393;SDS011;8306;51.128;4.476;2023-04-16T03:17:48;4.33;;;3.00;;
16393;SDS011;8306;51.128;4.476;2023-04-16T03:20:15;4.13;;;3.10;;
16393;SDS011;8306;51.128;4.476;2023-04-16T03:22:41;4.67;;;3.20;;
16393;SDS011;8306;51.128;4.476;2023-04-16T03:25:07;5.20;;;3.00;;
16393;SDS011;8306;51.128;4.476;2023-04-16T03:27:34;4.90;;;3.00;;
16393;SDS011;8306;51.128;4.476;2023-04-16T03:30:00;3.87;;;2.50;;
16393;SDS011;8306;51.128;4.476;2023-04-16T03:32:27;4.33;;;3.10;;
16393;SDS011;8306;51.128;4.476;2023-04-16T03:34:53;3.87;;;2.60;;
16393;SDS011;8306;51.128;4.476;2023-04-16T03:37:20;4.60;;;2.40;;
16393;SDS011;8306;51.128;4.476;2023-04-16T03:39:46;3.93;;;2.53;;
16393;SDS011;8306;51.128;4.476;2023-04-16T03:42:13;3.77;;;2.77;;
16393;SDS011;8306;51.128;4.476;2023-04-16T03:44:39;6.27;;;2.90;;
16393;SDS011;8306;51.128;4.476;2023-04-16T03:47:06;2.80;;;2.50;;
16393;SDS011;8306;51.128;4.476;2023-04-16T03:49:32;3.83;;;2.90;;
16393;SDS011;8306;51.128;4.476;2023-04-16T03:51:59;5.63;;;2.87;;
16393;SDS011;8306;51.128;4.476;2023-04-16T03:54:25;4.47;;;2.70;;
16393;SDS011;8306;51.128;4.476;2023-04-16T03:56:52;5.70;;;3.40;;
16393;SDS011;8306;51.128;4.476;2023-04-16T03:59:18;7.47;;;3.23;;
16393;SDS011;8306;51.128;4.476;2023-04-16T04:01:45;5.10;;;3.43;;
16393;SDS011;8306;51.128;4.476;2023-04-16T04:04:11;5.30;;;3.00;;
16393;SDS011;8306;51.128;4.476;2023-04-16T04:06:38;5.07;;;3.07;;
16393;SDS011;8306;51.128;4.476;2023-04-16T04:09:04;3.53;;;2.97;;
16393;SDS011;8306;51.128;4.476;2023-04-16T04:11:31;3.97;;;2.73;;
16393;SDS011;8306;51.128;4.476;2023-04-16T04:13:57;4.73;;;3.17;;
16393;SDS011;8306;51.128;4.476;2023-04-16T04:16:24;3.90;;;3.00;;
16393;SDS011;8306;51.128;4.476;2023-04-16T04:18:50;4.77;;;2.80;;
16393;SDS011;8306;51.128;4.476;2023-04-16T04:21:17;3.47;;;2.47;;
16393;SDS011;8306;51.128;4.476;2023-04-16T04:23:43;3.03;;;2.50;;
16393;SDS011;8306;51.128;4.476;2023-04-16T04:26:09;5.13;;;2.40;;
16393;SDS011;8306;51.128;4.476;2023-04-16T04:28:36;4.17;;;2.97;;
16393;SDS011;8306;51.128;4.476;2023-04-16T04:31:02;3.80;;;1.90;;
16393;SDS011;8306;51.128;4.476;2023-04-16T04:33:29;2.60;;;2.10;;
16393;SDS011;8306;51.128;4.476;2023-04-16T04:35:55;3.10;;;2.23;;
16393;SDS011;8306;51.128;4.476;2023-04-16T04:38:22;2.83;;;2.23;;
16393;SDS011;8306;51.128;4.476;2023-04-16T04:40:48;6.90;;;2.20;;
16393;SDS011;8306;51.128;4.476;2023-04-16T04:43:15;3.07;;;2.03;;
16393;SDS011;8306;51.128;4.476;2023-04-16T04:45:41;3.50;;;2.20;;
16393;SDS011;8306;51.128;4.476;2023-04-16T04:48:08;5.93;;;2.30;;
16393;SDS011;8306;51.128;4.476;2023-04-16T04:50:35;2.67;;;2.00;;
16393;SDS011;8306;51.128;4.476;2023-04-16T04:53:01;3.60;;;2.30;;
16393;SDS011;8306;51.128;4.476;2023-04-16T04:55:27;2.57;;;2.00;;
16393;SDS011;8306;51.128;4.476;2023-04-16T04:57:54;2.67;;;1.90;;
16393;SDS011;8306;51.128;4.476;2023-04-16T05:00:20;2.87;;;2.00;;
16393;SDS011;8306;51.128;4.476;2023-04-16T05:02:47;2.43;;;2.00;;
16393;SDS011;8306;51.128;4.476;2023-04-16T05:05:13;4.47;;;2.20;;
16393;SDS011;8306;51.128;4.476;2023-04-16T05:07:40;3.37;;;2.40;;
16393;SDS011;8306;51.128;4.476;2023-04-16T05:10:07;3.60;;;2.20;;
16393;SDS011;8306;51.128;4.476;2023-04-16T05:12:33;4.73;;;2.37;;
16393;SDS011;8306;51.128;4.476;2023-04-16T05:15:00;3.40;;;1.77;;
16393;SDS011;8306;51.128;4.476;2023-04-16T05:17:26;2.63;;;1.93;;
16393;SDS011;8306;51.128;4.476;2023-04-16T05:19:53;4.67;;;2.03;;
16393;SDS011;8306;51.128;4.476;2023-04-16T05:22:19;2.37;;;2.13;;
16393;SDS011;8306;51.128;4.476;2023-04-16T05:24:46;5.03;;;2.63;;
16393;SDS011;8306;51.128;4.476;2023-04-16T05:27:12;4.70;;;2.50;;
16393;SDS011;8306;51.128;4.476;2023-04-16T05:29:39;3.97;;;2.23;;
16393;SDS011;8306;51.128;4.476;2023-04-16T05:32:05;3.73;;;2.43;;
16393;SDS011;8306;51.128;4.476;2023-04-16T05:34:31;4.47;;;2.83;;
16393;SDS011;8306;51.128;4.476;2023-04-16T05:36:58;3.37;;;2.70;;
16393;SDS011;8306;51.128;4.476;2023-04-16T05:39:24;2.97;;;2.47;;
16393;SDS011;8306;51.128;4.476;2023-04-16T05:41:51;2.80;;;2.60;;
16393;SDS011;8306;51.128;4.476;2023-04-16T05:44:17;3.40;;;3.07;;
16393;SDS011;8306;51.128;4.476;2023-04-16T05:46:44;5.80;;;3.37;;
16393;SDS011;8306;51.128;4.476;2023-04-16T05:49:10;5.57;;;3.83;;
16393;SDS011;8306;51.128;4.476;2023-04-16T05:51:37;4.10;;;3.37;;
16393;SDS011;8306;51.128;4.476;2023-04-16T05:54:03;4.53;;;4.00;;
16393;SDS011;8306;51.128;4.476;2023-04-16T05:56:30;5.27;;;3.90;;
16393;SDS011;8306;51.128;4.476;2023-04-16T05:58:56;6.07;;;3.87;;
16393;SDS011;8306;51.128;4.476;2023-04-16T06:01:23;6.20;;;3.53;;
16393;SDS011;8306;51.128;4.476;2023-04-16T06:03:49;4.37;;;3.80;;
16393;SDS011;8306;51.128;4.476;2023-04-16T06:06:16;5.73;;;3.80;;
16393;SDS011;8306;51.128;4.476;2023-04-16T06:08:42;5.30;;;3.70;;
16393;SDS011;8306;51.128;4.476;2023-04-16T06:11:09;4.13;;;3.10;;
16393;SDS011;8306;51.128;4.476;2023-04-16T06:13:35;3.33;;;3.03;;
16393;SDS011;8306;51.128;4.476;2023-04-16T06:16:02;4.63;;;3.60;;
16393;SDS011;8306;51.128;4.476;2023-04-16T06:18:28;5.37;;;3.57;;
16393;SDS011;8306;51.128;4.476;2023-04-16T06:20:55;4.63;;;3.77;;
16393;SDS011;8306;51.128;4.476;2023-04-16T06:23:21;6.10;;;3.77;;
16393;SDS011;8306;51.128;4.476;2023-04-16T06:25:48;5.53;;;3.10;;
16393;SDS011;8306;51.128;4.476;2023-04-16T06:28:14;5.47;;;3.13;;
16393;SDS011;8306;51.128;4.476;2023-04-16T06:30:41;5.20;;;3.70;;
16393;SDS011;8306;51.128;4.476;2023-04-16T06:33:07;5.70;;;3.67;;
16393;SDS011;8306;51.128;4.476;2023-04-16T06:35:33;6.53;;;3.90;;
16393;SDS011;8306;51.128;4.476;2023-04-16T06:38:00;5.13;;;3.30;;
16393;SDS011;8306;51.128;4.476;2023-04-16T06:40:26;3.53;;;3.20;;
16393;SDS011;8306;51.128;4.476;2023-04-16T06:42:53;5.23;;;3.30;;
16393;SDS011;8306;51.128;4.476;2023-04-16T06:45:19;5.20;;;3.50;;
16393;SDS011;8306;51.128;4.476;2023-04-16T06:47:46;5.57;;;4.10;;
16393;SDS011;8306;51.128;4.476;2023-04-16T06:50:12;4.87;;;3.83;;
16393;SDS011;8306;51.128;4.476;2023-04-16T06:52:39;5.27;;;4.10;;
16393;SDS011;8306;51.128;4.476;2023-04-16T06:55:05;7.60;;;4.70;;
16393;SDS011;8306;51.128;4.476;2023-04-16T06:57:32;7.57;;;5.13;;
16393;SDS011;8306;51.128;4.476;2023-04-16T06:59:58;5.57;;;5.07;;
16393;SDS011;8306;51.128;4.476;2023-04-16T07:02:25;7.77;;;5.37;;
16393;SDS011;8306;51.128;4.476;2023-04-16T07:04:52;5.60;;;4.43;;
16393;SDS011;8306;51.128;4.476;2023-04-16T07:07:18;6.77;;;5.33;;
16393;SDS011;8306;51.128;4.476;2023-04-16T07:09:45;6.30;;;4.90;;
16393;SDS011;8306;51.128;4.476;2023-04-16T07:12:11;6.77;;;5.33;;
16393;SDS011;8306;51.128;4.476;2023-04-16T07:14:38;7.17;;;5.30;;
16393;SDS011;8306;51.128;4.476;2023-04-16T07:17:04;6.03;;;4.63;;
16393;SDS011;8306;51.128;4.476;2023-04-16T07:19:31;6.13;;;5.43;;
16393;SDS011;8306;51.128;4.476;2023-04-16T07:21:58;7.97;;;5.47;;
16393;SDS011;8306;51.128;4.476;2023-04-16T07:24:24;7.07;;;5.30;;
16393;SDS011;8306;51.128;4.476;2023-04-16T07:26:50;7.20;;;5.07;;
16393;SDS011;8306;51.128;4.476;2023-04-16T07:29:17;6.10;;;5.33;;
16393;SDS011;8306;51.128;4.476;2023-04-16T07:31:44;8.63;;;6.47;;
16393;SDS011;8306;51.128;4.476;2023-04-16T07:34:11;10.33;;;7.40;;
16393;SDS011;8306;51.128;4.476;2023-04-16T07:36:37;8.20;;;6.70;;
16393;SDS011;8306;51.128;4.476;2023-04-16T07:39:04;8.73;;;6.67;;
16393;SDS011;8306;51.128;4.476;2023-04-16T07:41:30;8.63;;;6.80;;
16393;SDS011;8306;51.128;4.476;2023-04-16T07:43:56;9.13;;;6.50;;
16393;SDS011;8306;51.128;4.476;2023-04-16T07:46:23;8.53;;;6.87;;
16393;SDS011;8306;51.128;4.476;2023-04-16T07:48:49;8.20;;;7.00;;
16393;SDS011;8306;51.128;4.476;2023-04-16T07:51:16;9.20;;;7.90;;
16393;SDS011;8306;51.128;4.476;2023-04-16T07:53:42;11.53;;;8.67;;
16393;SDS011;8306;51.128;4.476;2023-04-16T07:56:09;10.90;;;8.30;;
16393;SDS011;8306;51.128;4.476;2023-04-16T07:58:35;10.93;;;8.57;;
16393;SDS011;8306;51.128;4.476;2023-04-16T08:01:02;8.73;;;7.90;;
16393;SDS011;8306;51.128;4.476;2023-04-16T08:03:28;10.07;;;8.90;;
16393;SDS011;8306;51.128;4.476;2023-04-16T08:05:55;10.80;;;8.77;;
16393;SDS011;8306;51.128;4.476;2023-04-16T08:08:21;9.97;;;7.57;;
16393;SDS011;8306;51.128;4.476;2023-04-16T08:10:48;7.90;;;7.10;;
16393;SDS011;8306;51.128;4.476;2023-04-16T08:13:14;12.60;;;8.10;;
16393;SDS011;8306;51.128;4.476;2023-04-16T08:15:41;9.80;;;8.30;;
16393;SDS011;8306;51.128;4.476;2023-04-16T08:18:07;10.63;;;7.37;;
16393;SDS011;8306;51.128;4.476;2023-04-16T08:20:34;10.67;;;8.43;;
16393;SDS011;8306;51.128;4.476;2023-04-16T08:23:00;8.60;;;7.70;;
16393;SDS011;8306;51.128;4.476;2023-04-16T08:25:27;10.40;;;8.47;;
16393;SDS011;8306;51.128;4.476;2023-04-16T08:27:53;10.43;;;8.17;;
16393;SDS011;8306;51.128;4.476;2023-04-16T08:30:20;13.97;;;7.63;;
16393;SDS011;8306;51.128;4.476;2023-04-16T08:32:46;9.33;;;7.27;;
16393;SDS011;8306;51.128;4.476;2023-04-16T08:35:13;8.23;;;6.90;;
16393;SDS011;8306;51.128;4.476;2023-04-16T08:37:39;9.40;;;7.37;;
16393;SDS011;8306;51.128;4.476;2023-04-16T08:40:06;12.10;;;8.23;;
16393;SDS011;8306;51.128;4.476;2023-04-16T08:42:33;9.83;;;7.57;;
16393;SDS011;8306;51.128;4.476;2023-04-16T08:45:12;12.20;;;7.63;;
16393;SDS011;8306;51.128;4.476;2023-04-16T08:47:31;12.30;;;8.93;;
16393;SDS011;8306;51.128;4.476;2023-04-16T08:49:58;11.43;;;8.30;;
16393;SDS011;8306;51.128;4.476;2023-04-16T08:52:24;9.90;;;8.20;;
16393;SDS011;8306;51.128;4.476;2023-04-16T08:55:00;9.47;;;8.43;;
16393;SDS011;8306;51.128;4.476;2023-04-16T08:57:28;12.10;;;8.37;;
16393;SDS011;8306;51.128;4.476;2023-04-16T08:59:53;13.10;;;8.43;;
16393;SDS011;8306;51.128;4.476;2023-04-16T09:02:19;10.63;;;7.80;;
16393;SDS011;8306;51.128;4.476;2023-04-16T09:04:45;11.80;;;8.67;;
16393;SDS011;8306;51.128;4.476;2023-04-16T09:07:12;12.03;;;8.27;;
16393;SDS011;8306;51.128;4.476;2023-04-16T09:09:38;9.97;;;8.43;;
16393;SDS011;8306;51.128;4.476;2023-04-16T09:12:05;11.27;;;7.80;;
16393;SDS011;8306;51.128;4.476;2023-04-16T09:14:31;9.40;;;7.50;;
16393;SDS011;8306;51.128;4.476;2023-04-16T09:16:59;7.27;;;6.57;;
16393;SDS011;8306;51.128;4.476;2023-04-16T09:19:24;11.53;;;7.83;;
16393;SDS011;8306;51.128;4.476;2023-04-16T09:21:50;12.83;;;8.00;;
16393;SDS011;8306;51.128;4.476;2023-04-16T09:24:17;11.70;;;7.57;;
16393;SDS011;8306;51.128;4.476;2023-04-16T09:26:43;8.70;;;6.70;;
16393;SDS011;8306;51.128;4.476;2023-04-16T09:29:10;7.97;;;7.00;;
16393;SDS011;8306;51.128;4.476;2023-04-16T09:31:36;9.50;;;7.87;;
16393;SDS011;8306;51.128;4.476;2023-04-16T09:34:06;8.07;;;7.00;;
16393;SDS011;8306;51.128;4.476;2023-04-16T09:36:32;10.23;;;7.80;;
16393;SDS011;8306;51.128;4.476;2023-04-16T09:38:59;10.97;;;7.00;;
16393;SDS011;8306;51.128;4.476;2023-04-16T09:41:29;10.13;;;6.97;;
16393;SDS011;8306;51.128;4.476;2023-04-16T09:43:55;8.43;;;7.00;;
16393;SDS011;8306;51.128;4.476;2023-04-16T09:46:22;8.33;;;7.00;;
16393;SDS011;8306;51.128;4.476;2023-04-16T09:48:47;13.60;;;8.10;;
16393;SDS011;8306;51.128;4.476;2023-04-16T09:51:14;14.07;;;7.87;;
16393;SDS011;8306;51.128;4.476;2023-04-16T09:53:40;9.37;;;7.37;;
16393;SDS011;8306;51.128;4.476;2023-04-16T09:56:07;11.27;;;8.20;;
16393;SDS011;8306;51.128;4.476;2023-04-16T09:58:36;11.07;;;6.67;;
16393;SDS011;8306;51.128;4.476;2023-04-16T10:03:36;11.43;;;7.33;;
16393;SDS011;8306;51.128;4.476;2023-04-16T10:06:15;7.53;;;6.63;;
16393;SDS011;8306;51.128;4.476;2023-04-16T10:08:59;9.90;;;7.57;;
16393;SDS011;8306;51.128;4.476;2023-04-16T10:11:13;9.10;;;7.00;;
16393;SDS011;8306;51.128;4.476;2023-04-16T10:13:39;7.87;;;6.80;;
16393;SDS011;8306;51.128;4.476;2023-04-16T10:16:05;11.37;;;7.53;;
16393;SDS011;8306;51.128;4.476;2023-04-16T10:18:32;10.90;;;7.87;;
16393;SDS011;8306;51.128;4.476;2023-04-16T10:20:58;9.33;;;7.67;;
16393;SDS011;8306;51.128;4.476;2023-04-16T10:23:25;9.60;;;7.30;;
16393;SDS011;8306;51.128;4.476;2023-04-16T10:25:51;8.53;;;7.50;;
16393;SDS011;8306;51.128;4.476;2023-04-16T10:28:18;9.27;;;7.23;;
16393;SDS011;8306;51.128;4.476;2023-04-16T10:30:44;7.10;;;6.40;;
16393;SDS011;8306;51.128;4.476;2023-04-16T10:33:11;12.17;;;7.80;;
16393;SDS011;8306;51.128;4.476;2023-04-16T10:35:40;10.03;;;7.83;;
16393;SDS011;8306;51.128;4.476;2023-04-16T10:38:25;8.23;;;6.53;;
16393;SDS011;8306;51.128;4.476;2023-04-16T10:41:01;8.83;;;6.33;;
16393;SDS011;8306;51.128;4.476;2023-04-16T10:43:27;9.73;;;7.00;;
16393;SDS011;8306;51.128;4.476;2023-04-16T10:45:53;11.10;;;6.90;;
16393;SDS011;8306;51.128;4.476;2023-04-16T10:48:20;8.97;;;5.90;;
16393;SDS011;8306;51.128;4.476;2023-04-16T10:50:56;7.03;;;6.37;;
16393;SDS011;8306;51.128;4.476;2023-04-16T10:53:22;9.23;;;7.07;;
16393;SDS011;8306;51.128;4.476;2023-04-16T10:58:30;8.23;;;7.43;;
16393;SDS011;8306;51.128;4.476;2023-04-16T11:00:59;7.83;;;7.20;;
16393;SDS011;8306;51.128;4.476;2023-04-16T11:03:29;8.83;;;7.93;;
16393;SDS011;8306;51.128;4.476;2023-04-16T11:06:13;9.00;;;8.20;;
16393;SDS011;8306;51.128;4.476;2023-04-16T11:08:42;10.63;;;7.63;;
16393;SDS011;8306;51.128;4.476;2023-04-16T11:11:11;9.40;;;7.73;;
16393;SDS011;8306;51.128;4.476;2023-04-16T11:13:37;8.70;;;7.83;;
16393;SDS011;8306;51.128;4.476;2023-04-16T11:16:03;9.43;;;8.53;;
16393;SDS011;8306;51.128;4.476;2023-04-16T11:18:30;8.43;;;7.73;;
16393;SDS011;8306;51.128;4.476;2023-04-16T11:20:56;8.50;;;7.70;;
16393;SDS011;8306;51.128;4.476;2023-04-16T11:23:23;8.93;;;8.07;;
16393;SDS011;8306;51.128;4.476;2023-04-16T11:25:49;8.60;;;7.90;;
16393;SDS011;8306;51.128;4.476;2023-04-16T11:28:16;7.53;;;6.83;;
16393;SDS011;8306;51.128;4.476;2023-04-16T11:30:42;7.60;;;6.90;;
16393;SDS011;8306;51.128;4.476;2023-04-16T11:33:09;8.43;;;7.70;;
16393;SDS011;8306;51.128;4.476;2023-04-16T11:35:36;9.13;;;8.40;;
16393;SDS011;8306;51.128;4.476;2023-04-16T11:38:02;7.70;;;7.10;;
16393;SDS011;8306;51.128;4.476;2023-04-16T11:40:28;9.03;;;8.10;;
16393;SDS011;8306;51.128;4.476;2023-04-16T11:42:55;9.33;;;8.37;;
16393;SDS011;8306;51.128;4.476;2023-04-16T11:45:21;7.90;;;7.20;;
16393;SDS011;8306;51.128;4.476;2023-04-16T11:47:51;10.63;;;9.17;;
16393;SDS011;8306;51.128;4.476;2023-04-16T11:50:23;7.67;;;7.07;;
16393;SDS011;8306;51.128;4.476;2023-04-16T11:52:53;8.03;;;7.33;;
16393;SDS011;8306;51.128;4.476;2023-04-16T11:55:19;7.27;;;6.67;;
16393;SDS011;8306;51.128;4.476;2023-04-16T11:57:45;7.80;;;7.10;;
16393;SDS011;8306;51.128;4.476;2023-04-16T12:00:12;11.30;;;7.60;;
16393;SDS011;8306;51.128;4.476;2023-04-16T12:07:59;7.43;;;6.73;;
16393;SDS011;8306;51.128;4.476;2023-04-16T12:10:25;8.30;;;7.10;;
16393;SDS011;8306;51.128;4.476;2023-04-16T12:12:51;8.00;;;7.20;;
16393;SDS011;8306;51.128;4.476;2023-04-16T12:15:18;8.83;;;7.90;;
16393;SDS011;8306;51.128;4.476;2023-04-16T12:17:44;6.53;;;5.83;;
16393;SDS011;8306;51.128;4.476;2023-04-16T12:20:11;7.90;;;7.20;;
16393;SDS011;8306;51.128;4.476;2023-04-16T12:22:38;7.90;;;7.20;;
16393;SDS011;8306;51.128;4.476;2023-04-16T12:25:09;7.50;;;6.73;;
16393;SDS011;8306;51.128;4.476;2023-04-16T12:27:49;7.83;;;7.03;;
16393;SDS011;8306;51.128;4.476;2023-04-16T12:30:18;7.40;;;6.80;;
16393;SDS011;8306;51.128;4.476;2023-04-16T12:32:45;8.03;;;7.27;;
16393;SDS011;8306;51.128;4.476;2023-04-16T12:35:11;7.90;;;7.20;;
16393;SDS011;8306;51.128;4.476;2023-04-16T12:37:37;8.03;;;7.30;;
16393;SDS011;8306;51.128;4.476;2023-04-16T12:40:03;6.47;;;5.97;;
16393;SDS011;8306;51.128;4.476;2023-04-16T12:42:30;8.27;;;6.83;;
16393;SDS011;8306;51.128;4.476;2023-04-16T12:44:56;6.97;;;6.30;;
16393;SDS011;8306;51.128;4.476;2023-04-16T12:47:23;6.73;;;6.13;;
16393;SDS011;8306;51.128;4.476;2023-04-16T12:49:49;8.77;;;6.50;;
16393;SDS011;8306;51.128;4.476;2023-04-16T12:52:16;7.77;;;6.60;;
16393;SDS011;8306;51.128;4.476;2023-04-16T12:54:42;10.20;;;7.00;;
16393;SDS011;8306;51.128;4.476;2023-04-16T12:57:09;8.13;;;6.53;;
16393;SDS011;8306;51.128;4.476;2023-04-16T12:59:35;7.77;;;7.17;;
16393;SDS011;8306;51.128;4.476;2023-04-16T13:02:02;7.20;;;6.60;;
16393;SDS011;8306;51.128;4.476;2023-04-16T13:04:28;7.70;;;6.90;;
16393;SDS011;8306;51.128;4.476;2023-04-16T13:06:55;8.57;;;6.90;;
16393;SDS011;8306;51.128;4.476;2023-04-16T13:09:21;6.97;;;6.37;;
16393;SDS011;8306;51.128;4.476;2023-04-16T13:11:48;7.17;;;6.57;;
16393;SDS011;8306;51.128;4.476;2023-04-16T13:14:14;7.20;;;6.50;;
16393;SDS011;8306;51.128;4.476;2023-04-16T13:16:41;6.20;;;5.60;;
16393;SDS011;8306;51.128;4.476;2023-04-16T13:19:07;7.87;;;6.77;;
16393;SDS011;8306;51.128;4.476;2023-04-16T13:21:34;7.47;;;6.77;;
16393;SDS011;8306;51.128;4.476;2023-04-16T13:24:00;7.47;;;6.77;;
16393;SDS011;8306;51.128;4.476;2023-04-16T13:26:27;7.17;;;6.67;;
16393;SDS011;8306;51.128;4.476;2023-04-16T13:28:53;7.73;;;7.13;;
16393;SDS011;8306;51.128;4.476;2023-04-16T13:31:20;7.07;;;6.53;;
16393;SDS011;8306;51.128;4.476;2023-04-16T13:33:46;7.80;;;7.10;;
16393;SDS011;8306;51.128;4.476;2023-04-16T13:36:13;7.43;;;6.83;;
16393;SDS011;8306;51.128;4.476;2023-04-16T13:38:39;8.00;;;7.43;;
16393;SDS011;8306;51.128;4.476;2023-04-16T13:41:05;7.33;;;6.70;;
16393;SDS011;8306;51.128;4.476;2023-04-16T13:43:32;7.87;;;7.17;;
16393;SDS011;8306;51.128;4.476;2023-04-16T13:45:58;7.23;;;6.63;;
16393;SDS011;8306;51.128;4.476;2023-04-16T13:48:25;7.07;;;6.37;;
16393;SDS011;8306;51.128;4.476;2023-04-16T13:50:51;7.63;;;6.90;;
16393;SDS011;8306;51.128;4.476;2023-04-16T13:53:18;7.37;;;6.80;;
16393;SDS011;8306;51.128;4.476;2023-04-16T13:55:44;7.80;;;7.00;;
16393;SDS011;8306;51.128;4.476;2023-04-16T13:58:11;6.87;;;6.23;;
16393;SDS011;8306;51.128;4.476;2023-04-16T14:00:37;7.20;;;6.70;;
16393;SDS011;8306;51.128;4.476;2023-04-16T14:03:04;6.70;;;6.10;;
16393;SDS011;8306;51.128;4.476;2023-04-16T14:05:30;9.20;;;8.30;;
16393;SDS011;8306;51.128;4.476;2023-04-16T14:07:57;10.07;;;9.20;;
16393;SDS011;8306;51.128;4.476;2023-04-16T14:10:23;8.23;;;7.53;;
16393;SDS011;8306;51.128;4.476;2023-04-16T14:12:50;8.10;;;7.37;;
16393;SDS011;8306;51.128;4.476;2023-04-16T14:15:16;7.17;;;6.47;;
16393;SDS011;8306;51.128;4.476;2023-04-16T14:17:43;7.43;;;6.80;;
16393;SDS011;8306;51.128;4.476;2023-04-16T14:20:09;11.10;;;6.47;;
16393;SDS011;8306;51.128;4.476;2023-04-16T14:22:36;7.53;;;6.93;;
16393;SDS011;8306;51.128;4.476;2023-04-16T14:25:02;6.37;;;5.87;;
16393;SDS011;8306;51.128;4.476;2023-04-16T14:27:29;6.70;;;6.10;;
16393;SDS011;8306;51.128;4.476;2023-04-16T14:29:55;6.60;;;5.97;;
16393;SDS011;8306;51.128;4.476;2023-04-16T14:32:22;7.17;;;6.57;;
16393;SDS011;8306;51.128;4.476;2023-04-16T14:34:48;8.67;;;6.83;;
16393;SDS011;8306;51.128;4.476;2023-04-16T14:37:15;7.33;;;6.67;;
16393;SDS011;8306;51.128;4.476;2023-04-16T14:39:41;6.73;;;6.10;;
16393;SDS011;8306;51.128;4.476;2023-04-16T14:42:08;9.63;;;7.10;;
16393;SDS011;8306;51.128;4.476;2023-04-16T14:44:34;7.27;;;6.57;;
16393;SDS011;8306;51.128;4.476;2023-04-16T14:47:01;7.07;;;6.47;;
16393;SDS011;8306;51.128;4.476;2023-04-16T14:49:27;6.53;;;6.03;;
16393;SDS011;8306;51.128;4.476;2023-04-16T14:51:54;6.30;;;5.80;;
16393;SDS011;8306;51.128;4.476;2023-04-16T14:54:20;7.90;;;7.10;;
16393;SDS011;8306;51.128;4.476;2023-04-16T14:56:46;7.50;;;6.80;;
16393;SDS011;8306;51.128;4.476;2023-04-16T14:59:13;7.60;;;7.00;;
16393;SDS011;8306;51.128;4.476;2023-04-16T15:01:39;9.50;;;7.83;;
16393;SDS011;8306;51.128;4.476;2023-04-16T15:04:06;8.23;;;7.53;;
16393;SDS011;8306;51.128;4.476;2023-04-16T15:06:32;8.00;;;7.30;;
16393;SDS011;8306;51.128;4.476;2023-04-16T15:08:59;7.73;;;6.83;;